createdAt,value
2023-05-14T00:01:04.047Z,11.90
2023-05-14T00:03:32.022Z,11.90
2023-05-14T00:05:59.986Z,11.84
2023-05-14T00:08:27.844Z,11.80
2023-05-14T00:10:55.779Z,11.80
2023-05-14T00:13:23.934Z,11.80
2023-05-14T00:15:51.804Z,11.80
2023-05-14T00:18:19.824Z,11.80
2023-05-14T00:20:47.858Z,11.72
2023-05-14T00:23:16.224Z,11.70
2023-05-14T00:25:44.099Z,11.70
2023-05-14T00:28:12.003Z,11.70
2023-05-14T00:30:40.284Z,11.70
2023-05-14T00:33:08.455Z,11.70
2023-05-14T00:35:36.752Z,11.70
2023-05-14T00:38:04.745Z,11.70
2023-05-14T00:40:32.889Z,11.70
2023-05-14T00:43:01.565Z,11.70
2023-05-14T00:45:29.428Z,11.70
2023-05-14T00:47:57.417Z,11.70
2023-05-14T00:50:26.279Z,11.70
2023-05-14T00:52:54.661Z,11.70
2023-05-14T00:55:22.572Z,11.70
2023-05-14T00:57:50.491Z,11.70
2023-05-14T01:00:19.231Z,11.62
2023-05-14T01:02:47.391Z,11.70
2023-05-14T01:05:15.290Z,11.70
2023-05-14T01:07:59.374Z,11.70
2023-05-14T01:10:39.684Z,11.74
2023-05-14T01:13:16.163Z,11.80
2023-05-14T01:15:44.167Z,11.80
2023-05-14T01:18:14.325Z,11.90
2023-05-14T01:20:42.391Z,11.86
2023-05-14T01:23:10.285Z,11.86
2023-05-14T01:25:38.495Z,11.80
2023-05-14T01:28:18.015Z,11.80
2023-05-14T01:31:00.973Z,11.80
2023-05-14T01:33:29.692Z,11.80
2023-05-14T01:35:58.850Z,11.80
2023-05-14T01:38:27.611Z,11.80
2023-05-14T01:40:55.696Z,11.80
2023-05-14T01:43:24.230Z,11.80
2023-05-14T01:45:52.223Z,11.80
2023-05-14T01:48:20.121Z,11.80
2023-05-14T01:50:48.192Z,11.80
2023-05-14T01:53:16.038Z,11.80
2023-05-14T01:55:43.900Z,11.80
2023-05-14T01:58:11.919Z,11.80
2023-05-14T02:00:39.802Z,11.70
2023-05-14T02:03:07.778Z,11.70
2023-05-14T02:05:35.954Z,11.62
2023-05-14T02:08:03.949Z,11.60
2023-05-14T02:10:31.829Z,11.60
2023-05-14T02:12:59.793Z,11.56
2023-05-14T02:15:28.428Z,11.50
2023-05-14T02:17:56.600Z,11.50
2023-05-14T02:20:24.911Z,11.50
2023-05-14T02:22:53.203Z,11.50
2023-05-14T02:25:21.703Z,11.50
2023-05-14T02:27:49.752Z,11.50
2023-05-14T02:30:18.341Z,11.50
2023-05-14T02:32:46.412Z,11.50
2023-05-14T02:35:14.303Z,11.50
2023-05-14T02:37:42.557Z,11.50
2023-05-14T02:40:11.449Z,11.50
2023-05-14T02:42:39.516Z,11.50
2023-05-14T02:45:08.215Z,11.40
2023-05-14T02:47:37.974Z,11.40
2023-05-14T02:50:07.463Z,11.40
2023-05-14T02:52:35.995Z,11.30
2023-05-14T02:55:04.979Z,11.30
2023-05-14T02:57:33.031Z,11.20
2023-05-14T03:00:01.505Z,11.10
2023-05-14T03:02:30.511Z,11.10
2023-05-14T03:04:59.763Z,11.10
2023-05-14T03:07:27.868Z,11.08
2023-05-14T03:09:55.999Z,11.00
2023-05-14T03:12:23.836Z,11.00
2023-05-14T03:14:51.911Z,11.00
2023-05-14T03:17:20.026Z,11.04
2023-05-14T03:19:48.053Z,11.02
2023-05-14T03:22:16.026Z,11.00
2023-05-14T03:24:43.992Z,11.02
2023-05-14T03:27:12.063Z,11.10
2023-05-14T03:29:39.950Z,11.10
2023-05-14T03:32:07.924Z,11.10
2023-05-14T03:34:35.980Z,11.10
2023-05-14T03:37:04.448Z,11.10
2023-05-14T03:39:32.214Z,11.20
2023-05-14T03:42:00.334Z,11.20
2023-05-14T03:44:28.266Z,11.20
2023-05-14T03:46:56.280Z,11.30
2023-05-14T03:49:24.984Z,11.30
2023-05-14T03:51:52.840Z,11.40
2023-05-14T03:54:20.944Z,11.40
2023-05-14T03:56:48.801Z,11.40
2023-05-14T03:59:16.780Z,11.40
2023-05-14T04:01:44.855Z,11.40
2023-05-14T04:04:12.836Z,11.50
2023-05-14T04:06:41.027Z,11.50
2023-05-14T04:09:11.017Z,11.50
2023-05-14T04:11:39.187Z,11.54
2023-05-14T04:14:07.465Z,11.60
2023-05-14T04:16:35.691Z,11.60
2023-05-14T04:19:05.784Z,11.60
2023-05-14T04:21:33.824Z,11.60
2023-05-14T04:24:01.890Z,11.66
2023-05-14T04:26:29.732Z,11.70
2023-05-14T04:28:58.446Z,11.70
2023-05-14T04:31:26.314Z,11.70
2023-05-14T04:33:54.372Z,11.70
2023-05-14T04:36:22.348Z,11.70
2023-05-14T04:38:50.831Z,11.70
2023-05-14T04:41:18.757Z,11.80
2023-05-14T04:43:47.331Z,11.80
2023-05-14T04:46:15.614Z,11.80
2023-05-14T04:48:43.822Z,11.80
2023-05-14T04:51:11.811Z,11.90
2023-05-14T04:53:39.766Z,11.90
2023-05-14T04:56:07.780Z,11.96
2023-05-14T04:58:36.112Z,12.00
2023-05-14T05:01:05.232Z,12.00
2023-05-14T05:03:33.453Z,12.04
2023-05-14T05:06:01.460Z,12.10
2023-05-14T05:08:29.559Z,12.20
2023-05-14T05:10:57.364Z,12.20
2023-05-14T05:13:25.353Z,12.20
2023-05-14T05:15:53.185Z,12.28
2023-05-14T05:18:21.297Z,12.22
2023-05-14T05:20:49.191Z,12.30
2023-05-14T05:23:17.128Z,12.30
2023-05-14T05:25:44.949Z,12.30
2023-05-14T05:28:12.834Z,12.30
2023-05-14T05:30:41.090Z,12.30
2023-05-14T05:33:09.221Z,12.32
2023-05-14T05:35:37.911Z,12.32
2023-05-14T05:38:05.862Z,12.34
2023-05-14T05:40:34.145Z,12.30
2023-05-14T05:43:02.311Z,12.40
2023-05-14T05:45:30.176Z,12.40
2023-05-14T05:47:58.182Z,12.40
2023-05-14T05:50:26.380Z,12.40
2023-05-14T05:52:54.296Z,12.40
2023-05-14T05:55:22.358Z,12.40
2023-05-14T05:57:50.468Z,12.40
2023-05-14T06:00:19.424Z,12.40
2023-05-14T06:02:47.259Z,12.50
2023-05-14T06:05:15.400Z,12.50
2023-05-14T06:07:43.370Z,12.50
2023-05-14T06:10:11.407Z,12.50
2023-05-14T06:12:39.470Z,12.50
2023-05-14T06:15:08.004Z,12.60
2023-05-14T06:17:35.976Z,12.60
2023-05-14T06:20:05.596Z,12.54
2023-05-14T06:22:34.397Z,12.52
2023-05-14T06:25:02.305Z,12.50
2023-05-14T06:27:30.782Z,12.50
2023-05-14T06:29:58.726Z,12.50
2023-05-14T06:32:26.619Z,12.50
2023-05-14T06:34:54.620Z,12.50
2023-05-14T06:37:22.576Z,12.50
2023-05-14T06:39:51.014Z,12.50
2023-05-14T06:42:19.093Z,12.50
2023-05-14T06:44:48.689Z,12.50
2023-05-14T06:47:16.683Z,12.50
2023-05-14T06:49:44.838Z,12.58
2023-05-14T06:52:12.814Z,12.60
2023-05-14T06:54:40.872Z,12.70
2023-05-14T06:57:08.933Z,12.76
2023-05-14T06:59:36.698Z,12.90
2023-05-14T07:02:04.778Z,13.00
2023-05-14T07:04:33.213Z,13.20
2023-05-14T07:07:01.442Z,13.40
2023-05-14T07:09:29.366Z,13.60
2023-05-14T07:11:57.282Z,13.70
2023-05-14T07:14:25.443Z,13.70
2023-05-14T07:16:53.438Z,13.70
2023-05-14T07:19:22.373Z,13.60
2023-05-14T07:21:51.038Z,13.60
2023-05-14T07:24:19.256Z,13.60
2023-05-14T07:26:47.334Z,13.60
2023-05-14T07:29:15.506Z,13.70
2023-05-14T07:31:43.638Z,13.80
2023-05-14T07:34:12.769Z,13.90
2023-05-14T07:36:41.353Z,13.90
2023-05-14T07:39:09.538Z,13.90
2023-05-14T07:41:37.694Z,13.90
2023-05-14T07:44:05.835Z,13.90
2023-05-14T07:46:34.059Z,13.90
2023-05-14T07:49:02.102Z,14.00
2023-05-14T07:51:30.461Z,14.00
2023-05-14T07:53:58.453Z,14.00
2023-05-14T07:56:26.431Z,14.00
2023-05-14T07:58:54.514Z,14.00
2023-05-14T08:01:22.563Z,14.00
2023-05-14T08:03:50.941Z,14.00
2023-05-14T08:06:21.062Z,14.10
2023-05-14T08:08:49.287Z,14.20
2023-05-14T08:11:17.090Z,14.26
2023-05-14T08:13:45.700Z,14.40
2023-05-14T08:16:13.657Z,14.50
2023-05-14T08:18:41.707Z,14.50
2023-05-14T08:21:09.905Z,14.60
2023-05-14T08:23:37.861Z,14.60
2023-05-14T08:26:05.965Z,14.60
2023-05-14T08:28:34.097Z,14.70
2023-05-14T08:31:01.924Z,14.70
2023-05-14T08:33:29.951Z,14.84
2023-05-14T08:36:00.494Z,15.00
2023-05-14T08:38:28.432Z,15.00
2023-05-14T08:41:00.721Z,15.20
2023-05-14T08:43:48.860Z,15.30
2023-05-14T08:46:16.725Z,15.50
2023-05-14T08:48:44.755Z,15.50
2023-05-14T08:51:12.841Z,15.60
2023-05-14T08:53:40.937Z,15.74
2023-05-14T08:56:09.218Z,15.80
2023-05-14T08:58:37.397Z,15.80
2023-05-14T09:01:05.857Z,15.90
2023-05-14T09:03:33.840Z,15.90
2023-05-14T09:06:02.311Z,15.90
2023-05-14T09:08:30.802Z,15.90
2023-05-14T09:10:58.767Z,16.08
2023-05-14T09:13:28.299Z,16.10
2023-05-14T09:15:56.374Z,16.00
2023-05-14T09:18:25.367Z,16.06
2023-05-14T09:20:53.819Z,16.02
2023-05-14T09:23:21.775Z,16.00
2023-05-14T09:25:49.597Z,16.00
2023-05-14T09:28:18.605Z,16.10
2023-05-14T09:30:52.567Z,16.20
2023-05-14T09:33:27.366Z,16.40
2023-05-14T09:35:58.855Z,16.70
2023-05-14T09:38:30.966Z,17.06
2023-05-14T09:40:59.789Z,17.18
2023-05-14T09:43:28.458Z,17.28
2023-05-14T09:45:57.978Z,17.50
2023-05-14T09:48:26.414Z,17.66
2023-05-14T09:50:54.391Z,17.84
2023-05-14T09:53:22.282Z,18.30
2023-05-14T09:55:50.968Z,18.40
2023-05-14T09:58:19.025Z,18.74
2023-05-14T10:00:48.194Z,19.14
2023-05-14T10:03:18.826Z,19.40
2023-05-14T10:05:48.768Z,18.92
2023-05-14T10:08:26.901Z,18.80
2023-05-14T10:10:56.188Z,18.80
2023-05-14T10:13:24.884Z,18.84
2023-05-14T10:16:08.904Z,19.24
2023-05-14T10:18:41.410Z,19.50
2023-05-14T10:21:09.429Z,19.10
2023-05-14T10:23:38.188Z,19.20
2023-05-14T10:26:06.318Z,19.12
2023-05-14T10:28:34.447Z,19.20
2023-05-14T10:31:02.473Z,19.40
2023-05-14T10:33:30.502Z,19.62
2023-05-14T10:36:03.728Z,19.70
2023-05-14T10:38:38.287Z,19.50
2023-05-14T10:41:10.217Z,19.28
2023-05-14T10:43:39.045Z,19.20
2023-05-14T10:46:08.279Z,19.24
2023-05-14T10:48:37.189Z,19.36
2023-05-14T10:51:06.484Z,19.40
2023-05-14T10:53:43.877Z,19.76
2023-05-14T10:56:14.719Z,20.20
2023-05-14T10:58:43.999Z,20.30
2023-05-14T11:01:12.820Z,20.20
2023-05-14T11:03:44.932Z,20.30
2023-05-14T11:06:15.087Z,20.40
2023-05-14T11:08:44.094Z,20.30
2023-05-14T11:11:12.135Z,20.20
2023-05-14T11:13:40.328Z,20.30
2023-05-14T11:16:21.938Z,20.34
2023-05-14T11:19:02.261Z,20.30
2023-05-14T11:21:31.113Z,20.20
2023-05-14T11:24:02.412Z,20.20
2023-05-14T11:26:31.871Z,20.46
2023-05-14T11:28:59.910Z,20.60
2023-05-14T11:31:27.957Z,20.66
2023-05-14T11:33:56.122Z,20.60
2023-05-14T11:36:24.095Z,20.82
2023-05-14T11:38:52.726Z,20.98
2023-05-14T11:41:23.328Z,21.06
2023-05-14T11:43:51.555Z,20.90
2023-05-14T11:46:19.780Z,20.72
2023-05-14T11:48:48.145Z,20.70
2023-05-14T11:51:16.231Z,20.78
2023-05-14T11:53:45.075Z,20.80
2023-05-14T11:56:16.392Z,20.78
2023-05-14T11:58:47.858Z,20.76
2023-05-14T12:01:16.401Z,20.70
2023-05-14T12:03:45.042Z,20.60
2023-05-14T12:06:13.043Z,20.50
2023-05-14T12:08:41.145Z,20.50
2023-05-14T12:11:09.268Z,20.60
2023-05-14T12:13:37.262Z,20.52
2023-05-14T12:16:05.442Z,20.30
2023-05-14T12:18:33.728Z,20.20
2023-05-14T12:21:07.998Z,20.20
2023-05-14T12:23:35.794Z,20.10
2023-05-14T12:26:08.198Z,20.10
2023-05-14T12:28:38.503Z,20.22
2023-05-14T12:31:07.038Z,20.30
2023-05-14T12:33:34.938Z,20.30
2023-05-14T12:36:14.032Z,20.30
2023-05-14T12:38:50.288Z,20.30
2023-05-14T12:41:18.365Z,20.36
2023-05-14T12:43:47.907Z,20.42
2023-05-14T12:46:16.776Z,20.62
2023-05-14T12:48:44.841Z,20.80
2023-05-14T12:51:12.913Z,20.88
2023-05-14T12:53:41.403Z,21.00
2023-05-14T12:56:09.565Z,20.88
2023-05-14T12:58:37.509Z,20.80
2023-05-14T13:01:05.668Z,20.80
2023-05-14T13:03:33.800Z,20.70
2023-05-14T13:06:01.871Z,20.70
2023-05-14T13:08:29.765Z,20.70
2023-05-14T13:10:57.672Z,20.60
2023-05-14T13:13:25.649Z,20.60
2023-05-14T13:15:53.548Z,20.60
2023-05-14T13:18:21.604Z,20.60
2023-05-14T13:20:49.534Z,20.62
2023-05-14T13:23:17.342Z,20.70
2023-05-14T13:25:46.522Z,20.60
2023-05-14T13:28:16.228Z,20.50
2023-05-14T13:31:03.111Z,20.48
2023-05-14T13:33:30.979Z,20.40
2023-05-14T13:35:59.082Z,20.30
2023-05-14T13:38:27.035Z,20.22
2023-05-14T13:40:57.366Z,20.20
2023-05-14T13:43:25.130Z,20.10
2023-05-14T13:45:53.078Z,20.06
2023-05-14T13:48:21.061Z,20.00
2023-05-14T13:50:49.862Z,20.00
2023-05-14T13:53:19.461Z,20.00
2023-05-14T13:55:49.169Z,20.00
2023-05-14T13:58:17.450Z,20.00
2023-05-14T14:00:45.729Z,20.00
2023-05-14T14:03:13.695Z,20.00
2023-05-14T14:05:41.885Z,19.90
2023-05-14T14:08:22.725Z,19.82
2023-05-14T14:10:52.509Z,19.80
2023-05-14T14:13:21.408Z,19.80
2023-05-14T14:15:50.044Z,19.80
2023-05-14T14:18:18.120Z,19.70
2023-05-14T14:20:46.156Z,19.70
2023-05-14T14:23:14.134Z,19.68
2023-05-14T14:25:42.108Z,19.60
2023-05-14T14:28:10.486Z,19.60
2023-05-14T14:30:38.758Z,19.60
2023-05-14T14:33:07.112Z,19.60
2023-05-14T14:35:35.923Z,19.56
2023-05-14T14:38:04.088Z,19.54
2023-05-14T14:40:33.884Z,19.50
2023-05-14T14:43:02.391Z,19.50
2023-05-14T14:45:30.528Z,19.50
2023-05-14T14:48:34.471Z,19.50
2023-05-14T14:51:02.648Z,19.50
2023-05-14T14:53:31.331Z,19.42
2023-05-14T14:56:00.624Z,19.40
2023-05-14T14:58:28.802Z,19.34
2023-05-14T15:00:57.174Z,19.30
2023-05-14T15:03:25.301Z,19.22
2023-05-14T15:05:53.912Z,19.20
2023-05-14T15:08:25.810Z,19.12
2023-05-14T15:10:57.355Z,19.10
2023-05-14T15:13:25.939Z,19.10
2023-05-14T15:15:54.037Z,19.00
2023-05-14T15:18:21.867Z,19.00
2023-05-14T15:20:50.266Z,18.94
2023-05-14T15:23:18.726Z,18.90
2023-05-14T15:25:47.059Z,18.90
2023-05-14T15:28:15.075Z,18.80
2023-05-14T15:30:43.356Z,18.80
2023-05-14T15:33:11.561Z,18.80
2023-05-14T15:35:39.588Z,18.70
2023-05-14T15:38:07.614Z,18.70
2023-05-14T15:40:35.770Z,18.70
2023-05-14T15:43:03.593Z,18.68
2023-05-14T15:45:31.461Z,18.60
2023-05-14T15:47:59.372Z,18.60
2023-05-14T15:50:27.467Z,18.60
2023-05-14T15:52:55.389Z,18.60
2023-05-14T15:55:23.446Z,18.60
2023-05-14T15:57:51.435Z,18.58
2023-05-14T16:00:20.261Z,18.50
2023-05-14T16:02:48.462Z,18.50
2023-05-14T16:05:16.482Z,18.50
2023-05-14T16:07:44.314Z,18.40
2023-05-14T16:10:12.477Z,18.40
2023-05-14T16:12:40.456Z,18.40
2023-05-14T16:15:09.512Z,18.30
2023-05-14T16:17:37.753Z,18.30
2023-05-14T16:20:06.599Z,18.22
2023-05-14T16:22:35.335Z,18.20
2023-05-14T16:25:04.973Z,18.20
2023-05-14T16:27:33.086Z,18.16
2023-05-14T16:30:00.911Z,18.10
2023-05-14T16:32:29.137Z,18.10
2023-05-14T16:34:57.188Z,18.10
2023-05-14T16:37:25.303Z,18.10
2023-05-14T16:39:53.737Z,18.14
2023-05-14T16:42:21.718Z,18.20
2023-05-14T16:44:49.891Z,18.20
2023-05-14T16:47:17.945Z,18.20
2023-05-14T16:49:45.871Z,18.22
2023-05-14T16:52:13.789Z,18.20
2023-05-14T16:54:41.743Z,18.20
2023-05-14T16:57:09.631Z,18.10
2023-05-14T16:59:37.675Z,18.10
2023-05-14T17:02:06.255Z,18.00
2023-05-14T17:04:38.832Z,18.00
2023-05-14T17:07:06.932Z,17.90
2023-05-14T17:09:35.002Z,17.90
2023-05-14T17:12:03.052Z,17.80
2023-05-14T17:14:31.841Z,17.72
2023-05-14T17:17:00.016Z,17.70
2023-05-14T17:19:27.939Z,17.60
2023-05-14T17:21:55.847Z,17.50
2023-05-14T17:24:23.867Z,17.50
2023-05-14T17:26:51.882Z,17.50
2023-05-14T17:29:19.844Z,17.40
2023-05-14T17:31:48.724Z,17.40
2023-05-14T17:34:17.791Z,17.40
2023-05-14T17:36:48.859Z,17.34
2023-05-14T17:39:16.858Z,17.30
2023-05-14T17:41:44.800Z,17.30
2023-05-14T17:44:13.253Z,17.30
2023-05-14T17:46:42.376Z,17.30
2023-05-14T17:49:11.950Z,17.22
2023-05-14T17:51:39.947Z,17.20
2023-05-14T17:54:07.865Z,17.20
2023-05-14T17:56:36.014Z,17.20
2023-05-14T17:59:04.240Z,17.10
2023-05-14T18:01:32.269Z,17.10
2023-05-14T18:04:00.507Z,17.10
2023-05-14T18:06:28.608Z,17.06
2023-05-14T18:08:59.237Z,17.00
2023-05-14T18:11:32.760Z,17.00
2023-05-14T18:14:01.068Z,17.00
2023-05-14T18:16:29.003Z,17.00
2023-05-14T18:18:56.973Z,17.00
2023-05-14T18:21:25.128Z,17.00
2023-05-14T18:23:53.194Z,17.00
2023-05-14T18:26:22.187Z,17.00
2023-05-14T18:28:50.112Z,16.96
2023-05-14T18:31:18.065Z,16.90
2023-05-14T18:33:46.515Z,16.90
2023-05-14T18:36:14.602Z,16.90
2023-05-14T18:38:42.444Z,16.88
2023-05-14T18:41:10.506Z,16.84
2023-05-14T18:43:38.479Z,16.80
2023-05-14T18:46:06.369Z,16.80
2023-05-14T18:48:34.620Z,16.80
2023-05-14T18:51:02.741Z,16.80
2023-05-14T18:53:31.563Z,16.80
2023-05-14T18:56:00.227Z,16.80
2023-05-14T18:58:28.339Z,16.80
2023-05-14T19:00:59.183Z,16.80
2023-05-14T19:03:27.248Z,16.80
2023-05-14T19:05:55.443Z,16.80
2023-05-14T19:08:23.492Z,16.80
2023-05-14T19:10:51.828Z,16.80
2023-05-14T19:13:19.881Z,16.80
2023-05-14T19:15:48.081Z,16.80
2023-05-14T19:18:17.692Z,16.80
2023-05-14T19:20:46.710Z,16.80
2023-05-14T19:23:14.679Z,16.70
2023-05-14T19:25:42.461Z,16.70
2023-05-14T19:28:10.518Z,16.70
2023-05-14T19:30:38.388Z,16.70
2023-05-14T19:33:06.392Z,16.66
2023-05-14T19:35:34.332Z,16.60
2023-05-14T19:38:02.259Z,16.60
2023-05-14T19:40:30.257Z,16.60
2023-05-14T19:42:58.334Z,16.60
2023-05-14T19:45:26.337Z,16.60
2023-05-14T19:47:54.328Z,16.60
2023-05-14T19:50:22.324Z,16.52
2023-05-14T19:52:50.365Z,16.58
2023-05-14T19:55:18.402Z,16.50
2023-05-14T19:57:46.318Z,16.50
2023-05-14T20:00:14.416Z,16.60
2023-05-14T20:02:43.321Z,16.60
2023-05-14T20:05:11.536Z,16.60
2023-05-14T20:07:40.687Z,16.60
2023-05-14T20:10:10.797Z,16.60
2023-05-14T20:12:39.905Z,16.60
2023-05-14T20:15:08.454Z,16.60
2023-05-14T20:17:41.245Z,16.60
2023-05-14T20:20:10.997Z,16.60
2023-05-14T20:22:40.209Z,16.60
2023-05-14T20:25:10.925Z,16.60
2023-05-14T20:27:38.995Z,16.60
2023-05-14T20:30:09.154Z,16.60
2023-05-14T20:32:37.677Z,16.60
2023-05-14T20:35:07.862Z,16.60
2023-05-14T20:37:37.566Z,16.60
2023-05-14T20:40:07.318Z,16.58
2023-05-14T20:42:36.544Z,16.56
2023-05-14T20:45:07.006Z,16.50
2023-05-14T20:47:44.948Z,16.50
2023-05-14T20:50:15.876Z,16.50
2023-05-14T20:52:45.316Z,16.50
2023-05-14T20:55:14.774Z,16.40
2023-05-14T20:57:44.344Z,16.40
2023-05-14T21:00:13.406Z,16.38
2023-05-14T21:02:42.419Z,16.30
2023-05-14T21:05:10.678Z,16.30
2023-05-14T21:07:39.495Z,16.20
2023-05-14T21:10:10.321Z,16.20
2023-05-14T21:12:42.824Z,16.18
2023-05-14T21:15:13.424Z,16.10
2023-05-14T21:17:44.157Z,16.04
2023-05-14T21:20:15.837Z,16.00
2023-05-14T21:22:47.293Z,16.00
2023-05-14T21:25:15.130Z,16.00
2023-05-14T21:27:45.433Z,16.00
2023-05-14T21:30:14.827Z,15.92
2023-05-14T21:32:49.037Z,15.90
2023-05-14T21:35:17.226Z,15.90
2023-05-14T21:37:45.184Z,15.80
2023-05-14T21:40:13.233Z,15.80
2023-05-14T21:42:41.142Z,15.80
2023-05-14T21:45:10.509Z,15.78
2023-05-14T21:47:38.574Z,15.70
2023-05-14T21:50:07.744Z,15.70
2023-05-14T21:52:37.972Z,15.60
2023-05-14T21:55:06.399Z,15.60
2023-05-14T21:57:34.849Z,15.60
2023-05-14T22:00:04.949Z,15.60
2023-05-14T22:02:32.834Z,15.60
2023-05-14T22:05:00.881Z,15.60
2023-05-14T22:07:29.061Z,15.50
2023-05-14T22:09:56.925Z,15.50
2023-05-14T22:12:24.898Z,15.50
2023-05-14T22:14:52.966Z,15.50
2023-05-14T22:17:21.985Z,15.42
2023-05-14T22:19:50.337Z,15.40
2023-05-14T22:22:18.456Z,15.40
2023-05-14T22:24:46.599Z,15.40
2023-05-14T22:27:14.453Z,15.40
2023-05-14T22:29:42.533Z,15.40
2023-05-14T22:32:10.589Z,15.40
2023-05-14T22:34:38.550Z,15.40
2023-05-14T22:37:06.698Z,15.40
2023-05-14T22:39:35.003Z,15.40
2023-05-14T22:42:03.178Z,15.44
2023-05-14T22:44:31.105Z,15.42
2023-05-14T22:46:59.331Z,15.42
2023-05-14T22:49:27.250Z,15.40
2023-05-14T22:51:55.254Z,15.40
2023-05-14T22:54:23.138Z,15.40
2023-05-14T22:56:51.604Z,15.38
2023-05-14T22:59:21.009Z,15.32
2023-05-14T23:01:50.980Z,15.36
2023-05-14T23:04:18.963Z,15.40
2023-05-14T23:06:47.201Z,15.30
2023-05-14T23:09:15.334Z,15.30
2023-05-14T23:11:43.405Z,15.30
2023-05-14T23:14:12.099Z,15.20
2023-05-14T23:16:40.372Z,15.18
2023-05-14T23:19:08.381Z,15.10
2023-05-14T23:21:36.463Z,15.10
2023-05-14T23:24:04.518Z,15.10
2023-05-14T23:26:32.455Z,15.00
2023-05-14T23:29:00.398Z,15.00
2023-05-14T23:31:28.437Z,15.00
2023-05-14T23:33:57.083Z,14.98
2023-05-14T23:36:25.015Z,14.92
2023-05-14T23:38:52.965Z,14.90
2023-05-14T23:41:21.891Z,14.90
2023-05-14T23:43:49.713Z,14.80
2023-05-14T23:46:17.833Z,14.82
2023-05-14T23:48:45.835Z,14.80
2023-05-14T23:51:13.862Z,14.80
2023-05-14T23:53:41.647Z,14.80
2023-05-14T23:56:09.708Z,14.80
2023-05-14T23:58:37.507Z,14.80
